sensor_id;sensor_type;location;lat;lon;timestamp;P1;durP1;ratioP1;P2;durP2;ratioP2
22248;SDS011;67538;52.180;5.646;2023-10-09T00:00:33;59.72;;;25.00;;
22248;SDS011;67538;52.180;5.646;2023-10-09T00:03:20;58.88;;;24.35;;
22248;SDS011;67538;52.180;5.646;2023-10-09T00:05:49;62.50;;;25.52;;
22248;SDS011;67538;52.180;5.646;2023-10-09T00:08:20;61.92;;;25.33;;
22248;SDS011;67538;52.180;5.646;2023-10-09T00:10:52;59.53;;;24.87;;
22248;SDS011;67538;52.180;5.646;2023-10-09T00:13:19;56.20;;;24.40;;
22248;SDS011;67538;52.180;5.646;2023-10-09T00:15:53;52.38;;;22.90;;
22248;SDS011;67538;52.180;5.646;2023-10-09T00:18:25;50.78;;;22.02;;
22248;SDS011;67538;52.180;5.646;2023-10-09T00:20:55;41.10;;;18.90;;
22248;SDS011;67538;52.180;5.646;2023-10-09T00:23:27;35.58;;;17.50;;
22248;SDS011;67538;52.180;5.646;2023-10-09T00:25:57;36.35;;;16.60;;
22248;SDS011;67538;52.180;5.646;2023-10-09T00:28:36;37.90;;;18.13;;
22248;SDS011;67538;52.180;5.646;2023-10-09T00:31:06;42.75;;;18.38;;
22248;SDS011;67538;52.180;5.646;2023-10-09T00:33:40;42.67;;;20.30;;
22248;SDS011;67538;52.180;5.646;2023-10-09T00:36:07;42.70;;;20.42;;
22248;SDS011;67538;52.180;5.646;2023-10-09T00:38:37;42.50;;;20.30;;
22248;SDS011;67538;52.180;5.646;2023-10-09T00:41:09;46.92;;;20.67;;
22248;SDS011;67538;52.180;5.646;2023-10-09T00:43:44;43.43;;;19.90;;
22248;SDS011;67538;52.180;5.646;2023-10-09T00:46:15;43.10;;;19.58;;
22248;SDS011;67538;52.180;5.646;2023-10-09T00:48:49;44.38;;;19.98;;
22248;SDS011;67538;52.180;5.646;2023-10-09T00:51:19;35.25;;;17.33;;
22248;SDS011;67538;52.180;5.646;2023-10-09T00:53:51;40.75;;;18.98;;
22248;SDS011;67538;52.180;5.646;2023-10-09T00:56:20;42.43;;;19.37;;
22248;SDS011;67538;52.180;5.646;2023-10-09T00:59:03;44.10;;;21.55;;
22248;SDS011;67538;52.180;5.646;2023-10-09T01:01:34;47.97;;;21.67;;
22248;SDS011;67538;52.180;5.646;2023-10-09T01:04:01;56.70;;;23.30;;
22248;SDS011;67538;52.180;5.646;2023-10-09T01:06:35;76.72;;;31.67;;
22248;SDS011;67538;52.180;5.646;2023-10-09T01:09:10;76.13;;;30.93;;
22248;SDS011;67538;52.180;5.646;2023-10-09T01:11:39;84.78;;;34.10;;
22248;SDS011;67538;52.180;5.646;2023-10-09T01:14:14;78.20;;;31.95;;
22248;SDS011;67538;52.180;5.646;2023-10-09T01:16:42;95.05;;;35.58;;
22248;SDS011;67538;52.180;5.646;2023-10-09T01:19:09;78.38;;;34.30;;
22248;SDS011;67538;52.180;5.646;2023-10-09T01:21:46;88.35;;;35.78;;
22248;SDS011;67538;52.180;5.646;2023-10-09T01:24:15;88.43;;;36.97;;
22248;SDS011;67538;52.180;5.646;2023-10-09T01:26:45;86.53;;;35.93;;
22248;SDS011;67538;52.180;5.646;2023-10-09T01:29:14;91.97;;;36.13;;
22248;SDS011;67538;52.180;5.646;2023-10-09T01:31:44;97.47;;;38.05;;
22248;SDS011;67538;52.180;5.646;2023-10-09T01:34:20;90.32;;;38.40;;
22248;SDS011;67538;52.180;5.646;2023-10-09T01:36:51;88.97;;;38.75;;
22248;SDS011;67538;52.180;5.646;2023-10-09T01:39:22;91.60;;;38.92;;
22248;SDS011;67538;52.180;5.646;2023-10-09T01:41:51;89.07;;;38.55;;
22248;SDS011;67538;52.180;5.646;2023-10-09T01:44:24;85.77;;;38.27;;
22248;SDS011;67538;52.180;5.646;2023-10-09T01:46:59;88.22;;;38.67;;
22248;SDS011;67538;52.180;5.646;2023-10-09T01:49:32;92.70;;;38.67;;
22248;SDS011;67538;52.180;5.646;2023-10-09T01:52:01;84.65;;;38.60;;
22248;SDS011;67538;52.180;5.646;2023-10-09T01:54:35;82.43;;;37.50;;
22248;SDS011;67538;52.180;5.646;2023-10-09T01:57:07;83.27;;;37.97;;
22248;SDS011;67538;52.180;5.646;2023-10-09T01:59:38;78.00;;;37.17;;
22248;SDS011;67538;52.180;5.646;2023-10-09T02:02:09;89.60;;;37.55;;
22248;SDS011;67538;52.180;5.646;2023-10-09T02:04:56;85.35;;;37.53;;
22248;SDS011;67538;52.180;5.646;2023-10-09T02:07:34;82.33;;;37.23;;
22248;SDS011;67538;52.180;5.646;2023-10-09T02:10:11;80.18;;;36.40;;
22248;SDS011;67538;52.180;5.646;2023-10-09T02:12:51;75.88;;;36.72;;
22248;SDS011;67538;52.180;5.646;2023-10-09T02:15:22;75.10;;;36.15;;
22248;SDS011;67538;52.180;5.646;2023-10-09T02:18:11;74.03;;;36.28;;
22248;SDS011;67538;52.180;5.646;2023-10-09T02:20:52;73.95;;;35.75;;
22248;SDS011;67538;52.180;5.646;2023-10-09T02:23:26;71.22;;;35.65;;
22248;SDS011;67538;52.180;5.646;2023-10-09T02:26:06;74.32;;;35.53;;
22248;SDS011;67538;52.180;5.646;2023-10-09T02:28:34;71.93;;;34.80;;
22248;SDS011;67538;52.180;5.646;2023-10-09T02:31:02;75.82;;;35.08;;
22248;SDS011;67538;52.180;5.646;2023-10-09T02:33:37;67.60;;;34.43;;
22248;SDS011;67538;52.180;5.646;2023-10-09T02:36:05;71.80;;;34.55;;
22248;SDS011;67538;52.180;5.646;2023-10-09T02:38:33;68.50;;;33.40;;
22248;SDS011;67538;52.180;5.646;2023-10-09T02:41:03;70.22;;;34.10;;
22248;SDS011;67538;52.180;5.646;2023-10-09T02:43:47;68.78;;;34.00;;
22248;SDS011;67538;52.180;5.646;2023-10-09T02:46:16;65.28;;;33.13;;
22248;SDS011;67538;52.180;5.646;2023-10-09T02:48:45;60.67;;;32.80;;
22248;SDS011;67538;52.180;5.646;2023-10-09T02:51:16;66.50;;;32.30;;
22248;SDS011;67538;52.180;5.646;2023-10-09T02:53:57;58.97;;;31.67;;
22248;SDS011;67538;52.180;5.646;2023-10-09T02:56:32;59.15;;;31.42;;
22248;SDS011;67538;52.180;5.646;2023-10-09T02:59:05;59.92;;;31.38;;
22248;SDS011;67538;52.180;5.646;2023-10-09T03:01:32;55.67;;;30.35;;
22248;SDS011;67538;52.180;5.646;2023-10-09T03:04:02;64.40;;;32.22;;
22248;SDS011;67538;52.180;5.646;2023-10-09T03:06:31;57.95;;;31.58;;
22248;SDS011;67538;52.180;5.646;2023-10-09T03:09:00;60.33;;;31.77;;
22248;SDS011;67538;52.180;5.646;2023-10-09T03:11:41;58.43;;;30.50;;
22248;SDS011;67538;52.180;5.646;2023-10-09T03:14:11;55.17;;;29.52;;
22248;SDS011;67538;52.180;5.646;2023-10-09T03:16:38;53.47;;;28.73;;
22248;SDS011;67538;52.180;5.646;2023-10-09T03:19:05;55.80;;;29.48;;
22248;SDS011;67538;52.180;5.646;2023-10-09T03:21:32;56.75;;;28.75;;
22248;SDS011;67538;52.180;5.646;2023-10-09T03:23:59;57.15;;;29.95;;
22248;SDS011;67538;52.180;5.646;2023-10-09T03:26:30;54.53;;;28.77;;
22248;SDS011;67538;52.180;5.646;2023-10-09T03:28:57;52.08;;;28.40;;
22248;SDS011;67538;52.180;5.646;2023-10-09T03:31:27;54.40;;;28.35;;
22248;SDS011;67538;52.180;5.646;2023-10-09T03:33:56;52.47;;;28.30;;
22248;SDS011;67538;52.180;5.646;2023-10-09T03:36:23;53.25;;;27.15;;
22248;SDS011;67538;52.180;5.646;2023-10-09T03:38:52;50.40;;;26.92;;
22248;SDS011;67538;52.180;5.646;2023-10-09T03:41:23;55.65;;;28.15;;
22248;SDS011;67538;52.180;5.646;2023-10-09T03:43:51;48.95;;;27.23;;
22248;SDS011;67538;52.180;5.646;2023-10-09T03:46:19;47.28;;;26.80;;
22248;SDS011;67538;52.180;5.646;2023-10-09T03:48:52;50.85;;;26.20;;
22248;SDS011;67538;52.180;5.646;2023-10-09T03:51:22;49.42;;;26.63;;
22248;SDS011;67538;52.180;5.646;2023-10-09T03:53:51;49.70;;;26.48;;
22248;SDS011;67538;52.180;5.646;2023-10-09T03:56:19;49.15;;;25.08;;
22248;SDS011;67538;52.180;5.646;2023-10-09T03:58:47;48.10;;;25.10;;
22248;SDS011;67538;52.180;5.646;2023-10-09T04:01:15;49.08;;;26.20;;
22248;SDS011;67538;52.180;5.646;2023-10-09T04:03:48;46.15;;;25.40;;
22248;SDS011;67538;52.180;5.646;2023-10-09T04:06:17;44.88;;;25.40;;
22248;SDS011;67538;52.180;5.646;2023-10-09T04:08:44;47.38;;;25.52;;
22248;SDS011;67538;52.180;5.646;2023-10-09T04:11:15;47.90;;;25.25;;
22248;SDS011;67538;52.180;5.646;2023-10-09T04:13:43;47.00;;;25.48;;
22248;SDS011;67538;52.180;5.646;2023-10-09T04:16:12;52.35;;;25.80;;
22248;SDS011;67538;52.180;5.646;2023-10-09T04:18:53;46.80;;;24.95;;
22248;SDS011;67538;52.180;5.646;2023-10-09T04:21:23;46.67;;;24.83;;
22248;SDS011;67538;52.180;5.646;2023-10-09T04:23:59;43.13;;;24.27;;
22248;SDS011;67538;52.180;5.646;2023-10-09T04:26:48;45.23;;;24.00;;
22248;SDS011;67538;52.180;5.646;2023-10-09T04:29:21;46.92;;;24.25;;
22248;SDS011;67538;52.180;5.646;2023-10-09T04:32:03;46.05;;;23.25;;
22248;SDS011;67538;52.180;5.646;2023-10-09T04:34:33;43.35;;;23.13;;
22248;SDS011;67538;52.180;5.646;2023-10-09T04:37:02;44.67;;;23.00;;
22248;SDS011;67538;52.180;5.646;2023-10-09T04:39:53;45.38;;;23.50;;
22248;SDS011;67538;52.180;5.646;2023-10-09T04:42:37;44.28;;;22.45;;
22248;SDS011;67538;52.180;5.646;2023-10-09T04:45:11;45.03;;;22.63;;
22248;SDS011;67538;52.180;5.646;2023-10-09T04:47:45;41.92;;;22.23;;
22248;SDS011;67538;52.180;5.646;2023-10-09T04:50:23;43.33;;;22.00;;
22248;SDS011;67538;52.180;5.646;2023-10-09T04:53:12;40.35;;;21.65;;
22248;SDS011;67538;52.180;5.646;2023-10-09T04:55:54;44.47;;;21.88;;
22248;SDS011;67538;52.180;5.646;2023-10-09T04:58:20;42.08;;;22.10;;
22248;SDS011;67538;52.180;5.646;2023-10-09T05:00:51;40.78;;;20.90;;
22248;SDS011;67538;52.180;5.646;2023-10-09T05:03:40;40.45;;;21.75;;
22248;SDS011;67538;52.180;5.646;2023-10-09T05:06:10;43.90;;;21.60;;
22248;SDS011;67538;52.180;5.646;2023-10-09T05:08:59;40.25;;;21.20;;
22248;SDS011;67538;52.180;5.646;2023-10-09T05:11:34;47.33;;;21.38;;
22248;SDS011;67538;52.180;5.646;2023-10-09T05:14:18;40.20;;;20.33;;
22248;SDS011;67538;52.180;5.646;2023-10-09T05:16:52;40.83;;;20.37;;
22248;SDS011;67538;52.180;5.646;2023-10-09T05:19:26;38.70;;;20.50;;
22248;SDS011;67538;52.180;5.646;2023-10-09T05:22:20;36.58;;;19.55;;
22248;SDS011;67538;52.180;5.646;2023-10-09T05:25:03;39.22;;;19.42;;
22248;SDS011;67538;52.180;5.646;2023-10-09T05:27:41;42.88;;;19.67;;
22248;SDS011;67538;52.180;5.646;2023-10-09T05:30:11;33.90;;;18.20;;
22248;SDS011;67538;52.180;5.646;2023-10-09T05:32:55;41.35;;;19.35;;
22248;SDS011;67538;52.180;5.646;2023-10-09T05:35:30;39.80;;;18.55;;
22248;SDS011;67538;52.180;5.646;2023-10-09T05:38:06;34.00;;;18.52;;
22248;SDS011;67538;52.180;5.646;2023-10-09T05:40:49;35.38;;;17.40;;
22248;SDS011;67538;52.180;5.646;2023-10-09T05:43:19;33.95;;;18.17;;
22248;SDS011;67538;52.180;5.646;2023-10-09T05:46:04;52.90;;;18.20;;
22248;SDS011;67538;52.180;5.646;2023-10-09T05:48:35;35.38;;;17.83;;
22248;SDS011;67538;52.180;5.646;2023-10-09T05:51:19;37.17;;;17.13;;
22248;SDS011;67538;52.180;5.646;2023-10-09T05:54:04;32.45;;;16.88;;
22248;SDS011;67538;52.180;5.646;2023-10-09T05:56:50;36.90;;;17.63;;
22248;SDS011;67538;52.180;5.646;2023-10-09T05:59:49;33.92;;;17.30;;
22248;SDS011;67538;52.180;5.646;2023-10-09T06:02:34;34.13;;;16.47;;
22248;SDS011;67538;52.180;5.646;2023-10-09T06:05:19;34.58;;;16.52;;
22248;SDS011;67538;52.180;5.646;2023-10-09T06:08:04;33.28;;;15.50;;
22248;SDS011;67538;52.180;5.646;2023-10-09T06:10:32;34.58;;;16.35;;
22248;SDS011;67538;52.180;5.646;2023-10-09T06:13:08;31.08;;;15.13;;
22248;SDS011;67538;52.180;5.646;2023-10-09T06:15:49;27.63;;;14.60;;
22248;SDS011;67538;52.180;5.646;2023-10-09T06:18:34;29.38;;;14.07;;
22248;SDS011;67538;52.180;5.646;2023-10-09T06:21:00;30.40;;;13.82;;
22248;SDS011;67538;52.180;5.646;2023-10-09T06:24:05;21.87;;;12.80;;
22248;SDS011;67538;52.180;5.646;2023-10-09T06:26:39;26.42;;;13.30;;
22248;SDS011;67538;52.180;5.646;2023-10-09T06:29:18;26.60;;;13.02;;
22248;SDS011;67538;52.180;5.646;2023-10-09T06:32:00;31.85;;;13.02;;
22248;SDS011;67538;52.180;5.646;2023-10-09T06:35:00;24.57;;;12.67;;
22248;SDS011;67538;52.180;5.646;2023-10-09T06:37:42;27.35;;;12.80;;
22248;SDS011;67538;52.180;5.646;2023-10-09T06:40:23;32.28;;;13.23;;
22248;SDS011;67538;52.180;5.646;2023-10-09T06:43:08;33.70;;;13.98;;
22248;SDS011;67538;52.180;5.646;2023-10-09T06:45:41;40.75;;;14.27;;
22248;SDS011;67538;52.180;5.646;2023-10-09T06:48:19;27.92;;;13.50;;
22248;SDS011;67538;52.180;5.646;2023-10-09T06:51:04;27.67;;;13.87;;
22248;SDS011;67538;52.180;5.646;2023-10-09T06:53:38;30.27;;;13.30;;
22248;SDS011;67538;52.180;5.646;2023-10-09T06:56:23;29.27;;;13.13;;
22248;SDS011;67538;52.180;5.646;2023-10-09T06:59:12;28.23;;;13.15;;
22248;SDS011;67538;52.180;5.646;2023-10-09T07:01:47;33.20;;;13.60;;
22248;SDS011;67538;52.180;5.646;2023-10-09T07:04:37;28.45;;;13.57;;
22248;SDS011;67538;52.180;5.646;2023-10-09T07:07:12;28.83;;;13.65;;
22248;SDS011;67538;52.180;5.646;2023-10-09T07:09:41;31.45;;;14.23;;
22248;SDS011;67538;52.180;5.646;2023-10-09T07:12:08;29.58;;;13.40;;
22248;SDS011;67538;52.180;5.646;2023-10-09T07:14:39;39.63;;;14.13;;
22248;SDS011;67538;52.180;5.646;2023-10-09T07:17:26;29.20;;;13.93;;
22248;SDS011;67538;52.180;5.646;2023-10-09T07:20:10;26.45;;;13.07;;
22248;SDS011;67538;52.180;5.646;2023-10-09T07:22:41;31.70;;;14.47;;
22248;SDS011;67538;52.180;5.646;2023-10-09T07:25:38;29.98;;;14.23;;
22248;SDS011;67538;52.180;5.646;2023-10-09T07:28:20;27.02;;;13.95;;
22248;SDS011;67538;52.180;5.646;2023-10-09T07:31:07;29.65;;;14.52;;
22248;SDS011;67538;52.180;5.646;2023-10-09T07:33:50;28.38;;;13.77;;
22248;SDS011;67538;52.180;5.646;2023-10-09T07:36:22;28.50;;;14.05;;
22248;SDS011;67538;52.180;5.646;2023-10-09T07:39:03;36.27;;;14.83;;
22248;SDS011;67538;52.180;5.646;2023-10-09T07:41:42;30.15;;;14.32;;
22248;SDS011;67538;52.180;5.646;2023-10-09T07:44:40;31.30;;;14.05;;
22248;SDS011;67538;52.180;5.646;2023-10-09T07:47:17;30.17;;;14.63;;
22248;SDS011;67538;52.180;5.646;2023-10-09T07:49:49;31.40;;;14.17;;
22248;SDS011;67538;52.180;5.646;2023-10-09T07:52:24;29.27;;;14.03;;
22248;SDS011;67538;52.180;5.646;2023-10-09T07:54:51;27.63;;;14.05;;
22248;SDS011;67538;52.180;5.646;2023-10-09T07:57:27;28.83;;;14.07;;
22248;SDS011;67538;52.180;5.646;2023-10-09T08:00:03;26.95;;;13.85;;
22248;SDS011;67538;52.180;5.646;2023-10-09T08:02:59;29.73;;;13.55;;
22248;SDS011;67538;52.180;5.646;2023-10-09T08:05:29;25.98;;;14.10;;
22248;SDS011;67538;52.180;5.646;2023-10-09T08:08:00;31.58;;;14.15;;
22248;SDS011;67538;52.180;5.646;2023-10-09T08:11:06;27.65;;;13.77;;
22248;SDS011;67538;52.180;5.646;2023-10-09T08:13:53;29.75;;;14.77;;
22248;SDS011;67538;52.180;5.646;2023-10-09T08:16:26;26.48;;;14.30;;
22248;SDS011;67538;52.180;5.646;2023-10-09T08:19:01;29.52;;;14.35;;
22248;SDS011;67538;52.180;5.646;2023-10-09T08:21:47;28.77;;;14.10;;
22248;SDS011;67538;52.180;5.646;2023-10-09T08:24:42;30.65;;;14.48;;
22248;SDS011;67538;52.180;5.646;2023-10-09T08:27:14;32.97;;;15.10;;
22248;SDS011;67538;52.180;5.646;2023-10-09T08:29:59;26.80;;;14.43;;
22248;SDS011;67538;52.180;5.646;2023-10-09T08:32:53;29.60;;;14.27;;
22248;SDS011;67538;52.180;5.646;2023-10-09T08:35:26;29.13;;;14.30;;
22248;SDS011;67538;52.180;5.646;2023-10-09T08:37:57;28.42;;;13.82;;
22248;SDS011;67538;52.180;5.646;2023-10-09T08:40:33;29.73;;;13.05;;
22248;SDS011;67538;52.180;5.646;2023-10-09T08:43:05;26.27;;;12.77;;
22248;SDS011;67538;52.180;5.646;2023-10-09T08:45:36;26.42;;;12.35;;
22248;SDS011;67538;52.180;5.646;2023-10-09T08:48:06;27.38;;;12.68;;
22248;SDS011;67538;52.180;5.646;2023-10-09T08:50:40;24.45;;;11.90;;
22248;SDS011;67538;52.180;5.646;2023-10-09T08:53:09;25.08;;;12.32;;
22248;SDS011;67538;52.180;5.646;2023-10-09T08:55:36;24.17;;;11.50;;
22248;SDS011;67538;52.180;5.646;2023-10-09T08:58:03;26.75;;;11.98;;
22248;SDS011;67538;52.180;5.646;2023-10-09T09:00:35;24.88;;;11.68;;
22248;SDS011;67538;52.180;5.646;2023-10-09T09:03:08;27.55;;;11.32;;
22248;SDS011;67538;52.180;5.646;2023-10-09T09:05:35;23.30;;;10.82;;
22248;SDS011;67538;52.180;5.646;2023-10-09T09:08:03;22.08;;;11.15;;
22248;SDS011;67538;52.180;5.646;2023-10-09T09:10:30;24.75;;;10.50;;
22248;SDS011;67538;52.180;5.646;2023-10-09T09:13:02;21.52;;;10.18;;
22248;SDS011;67538;52.180;5.646;2023-10-09T09:15:32;21.50;;;10.25;;
22248;SDS011;67538;52.180;5.646;2023-10-09T09:18:05;18.95;;;9.73;;
22248;SDS011;67538;52.180;5.646;2023-10-09T09:20:36;19.77;;;9.45;;
22248;SDS011;67538;52.180;5.646;2023-10-09T09:23:06;20.13;;;8.85;;
22248;SDS011;67538;52.180;5.646;2023-10-09T09:25:42;16.85;;;8.77;;
22248;SDS011;67538;52.180;5.646;2023-10-09T09:28:11;20.42;;;9.70;;
22248;SDS011;67538;52.180;5.646;2023-10-09T09:30:44;17.52;;;9.18;;
22248;SDS011;67538;52.180;5.646;2023-10-09T09:33:19;24.73;;;9.10;;
22248;SDS011;67538;52.180;5.646;2023-10-09T09:35:58;21.13;;;9.25;;
22248;SDS011;67538;52.180;5.646;2023-10-09T09:38:27;24.40;;;8.90;;
22248;SDS011;67538;52.180;5.646;2023-10-09T09:41:02;20.40;;;8.80;;
22248;SDS011;67538;52.180;5.646;2023-10-09T09:43:32;21.42;;;8.50;;
22248;SDS011;67538;52.180;5.646;2023-10-09T09:46:01;18.40;;;7.93;;
22248;SDS011;67538;52.180;5.646;2023-10-09T09:48:33;20.23;;;8.25;;
22248;SDS011;67538;52.180;5.646;2023-10-09T09:51:10;20.83;;;8.80;;
22248;SDS011;67538;52.180;5.646;2023-10-09T09:53:40;18.33;;;7.95;;
22248;SDS011;67538;52.180;5.646;2023-10-09T09:56:08;19.67;;;7.70;;
22248;SDS011;67538;52.180;5.646;2023-10-09T09:58:43;19.30;;;8.65;;
22248;SDS011;67538;52.180;5.646;2023-10-09T10:01:12;19.73;;;8.38;;
22248;SDS011;67538;52.180;5.646;2023-10-09T10:03:48;19.67;;;8.05;;
22248;SDS011;67538;52.180;5.646;2023-10-09T10:06:21;22.25;;;7.75;;
22248;SDS011;67538;52.180;5.646;2023-10-09T10:08:51;22.80;;;8.48;;
22248;SDS011;67538;52.180;5.646;2023-10-09T10:14:10;20.63;;;8.30;;
22248;SDS011;67538;52.180;5.646;2023-10-09T10:16:59;18.17;;;8.03;;
22248;SDS011;67538;52.180;5.646;2023-10-09T10:22:26;18.43;;;7.90;;
22248;SDS011;67538;52.180;5.646;2023-10-09T10:24:55;18.67;;;8.52;;
22248;SDS011;67538;52.180;5.646;2023-10-09T10:27:25;18.58;;;8.10;;
22248;SDS011;67538;52.180;5.646;2023-10-09T10:32:57;19.10;;;7.93;;
22248;SDS011;67538;52.180;5.646;2023-10-09T10:35:34;20.40;;;8.27;;
22248;SDS011;67538;52.180;5.646;2023-10-09T10:38:23;16.75;;;8.18;;
22248;SDS011;67538;52.180;5.646;2023-10-09T10:40:52;18.58;;;8.25;;
22248;SDS011;67538;52.180;5.646;2023-10-09T10:43:26;19.83;;;8.23;;
22248;SDS011;67538;52.180;5.646;2023-10-09T10:46:07;18.27;;;7.93;;
22248;SDS011;67538;52.180;5.646;2023-10-09T10:48:39;18.83;;;7.90;;
22248;SDS011;67538;52.180;5.646;2023-10-09T10:51:11;17.50;;;8.20;;
22248;SDS011;67538;52.180;5.646;2023-10-09T10:53:49;17.08;;;7.82;;
22248;SDS011;67538;52.180;5.646;2023-10-09T10:56:22;21.00;;;7.93;;
22248;SDS011;67538;52.180;5.646;2023-10-09T10:59:01;20.27;;;7.78;;
22248;SDS011;67538;52.180;5.646;2023-10-09T11:01:47;22.35;;;8.10;;
22248;SDS011;67538;52.180;5.646;2023-10-09T11:04:39;20.08;;;7.65;;
22248;SDS011;67538;52.180;5.646;2023-10-09T11:07:07;21.02;;;8.00;;
22248;SDS011;67538;52.180;5.646;2023-10-09T11:09:43;21.77;;;8.15;;
22248;SDS011;67538;52.180;5.646;2023-10-09T11:12:42;19.20;;;7.55;;
22248;SDS011;67538;52.180;5.646;2023-10-09T11:15:33;21.42;;;8.00;;
22248;SDS011;67538;52.180;5.646;2023-10-09T11:18:09;17.42;;;6.70;;
22248;SDS011;67538;52.180;5.646;2023-10-09T11:20:45;17.10;;;6.97;;
22248;SDS011;67538;52.180;5.646;2023-10-09T11:23:24;19.37;;;6.93;;
22248;SDS011;67538;52.180;5.646;2023-10-09T11:26:01;20.10;;;7.07;;
22248;SDS011;67538;52.180;5.646;2023-10-09T11:28:46;13.77;;;6.28;;
22248;SDS011;67538;52.180;5.646;2023-10-09T11:31:39;19.27;;;6.95;;
22248;SDS011;67538;52.180;5.646;2023-10-09T11:34:20;14.55;;;6.28;;
22248;SDS011;67538;52.180;5.646;2023-10-09T11:36:55;17.60;;;6.47;;
22248;SDS011;67538;52.180;5.646;2023-10-09T11:39:24;16.63;;;6.63;;
22248;SDS011;67538;52.180;5.646;2023-10-09T11:42:01;19.27;;;6.10;;
22248;SDS011;67538;52.180;5.646;2023-10-09T11:44:39;13.80;;;5.83;;
22248;SDS011;67538;52.180;5.646;2023-10-09T11:47:11;15.48;;;5.90;;
22248;SDS011;67538;52.180;5.646;2023-10-09T11:49:58;15.73;;;5.97;;
22248;SDS011;67538;52.180;5.646;2023-10-09T11:52:56;18.55;;;5.95;;
22248;SDS011;67538;52.180;5.646;2023-10-09T11:55:43;13.75;;;5.85;;
22248;SDS011;67538;52.180;5.646;2023-10-09T11:58:14;16.50;;;5.95;;
22248;SDS011;67538;52.180;5.646;2023-10-09T12:00:48;14.18;;;6.25;;
22248;SDS011;67538;52.180;5.646;2023-10-09T12:03:23;17.07;;;6.53;;
22248;SDS011;67538;52.180;5.646;2023-10-09T12:05:54;16.13;;;6.40;;
22248;SDS011;67538;52.180;5.646;2023-10-09T12:08:22;15.32;;;6.55;;
22248;SDS011;67538;52.180;5.646;2023-10-09T12:10:52;15.15;;;6.07;;
22248;SDS011;67538;52.180;5.646;2023-10-09T12:13:21;15.15;;;6.25;;
22248;SDS011;67538;52.180;5.646;2023-10-09T12:15:49;15.50;;;6.50;;
22248;SDS011;67538;52.180;5.646;2023-10-09T12:18:19;19.30;;;6.25;;
22248;SDS011;67538;52.180;5.646;2023-10-09T12:20:48;17.17;;;6.68;;
22248;SDS011;67538;52.180;5.646;2023-10-09T12:23:28;17.95;;;6.05;;
22248;SDS011;67538;52.180;5.646;2023-10-09T12:25:59;18.75;;;7.07;;
22248;SDS011;67538;52.180;5.646;2023-10-09T12:28:26;15.10;;;6.47;;
22248;SDS011;67538;52.180;5.646;2023-10-09T12:30:55;14.63;;;6.10;;
22248;SDS011;67538;52.180;5.646;2023-10-09T12:33:26;14.88;;;6.18;;
22248;SDS011;67538;52.180;5.646;2023-10-09T12:35:56;19.58;;;6.43;;
22248;SDS011;67538;52.180;5.646;2023-10-09T12:38:25;15.90;;;6.32;;
22248;SDS011;67538;52.180;5.646;2023-10-09T12:41:00;17.95;;;6.60;;
22248;SDS011;67538;52.180;5.646;2023-10-09T12:43:33;18.10;;;7.57;;
22248;SDS011;67538;52.180;5.646;2023-10-09T12:46:04;14.97;;;6.17;;
22248;SDS011;67538;52.180;5.646;2023-10-09T12:48:32;16.52;;;6.43;;
22248;SDS011;67538;52.180;5.646;2023-10-09T12:51:01;19.55;;;6.30;;
22248;SDS011;67538;52.180;5.646;2023-10-09T12:53:31;21.95;;;6.90;;
22248;SDS011;67538;52.180;5.646;2023-10-09T12:55:58;16.52;;;6.15;;
22248;SDS011;67538;52.180;5.646;2023-10-09T12:58:26;13.80;;;5.85;;
22248;SDS011;67538;52.180;5.646;2023-10-09T13:00:53;16.70;;;6.57;;
22248;SDS011;67538;52.180;5.646;2023-10-09T13:03:20;17.58;;;6.35;;
22248;SDS011;67538;52.180;5.646;2023-10-09T13:05:53;16.10;;;6.27;;
22248;SDS011;67538;52.180;5.646;2023-10-09T13:08:23;17.15;;;5.28;;
22248;SDS011;67538;52.180;5.646;2023-10-09T13:10:56;14.63;;;5.53;;
22248;SDS011;67538;52.180;5.646;2023-10-09T13:13:33;14.15;;;5.43;;
22248;SDS011;67538;52.180;5.646;2023-10-09T13:16:07;13.93;;;5.57;;
22248;SDS011;67538;52.180;5.646;2023-10-09T13:18:37;17.77;;;5.63;;
22248;SDS011;67538;52.180;5.646;2023-10-09T13:21:05;14.40;;;5.60;;
22248;SDS011;67538;52.180;5.646;2023-10-09T13:23:34;13.95;;;5.47;;
22248;SDS011;67538;52.180;5.646;2023-10-09T13:26:07;16.98;;;5.60;;
22248;SDS011;67538;52.180;5.646;2023-10-09T13:28:47;19.42;;;5.60;;
22248;SDS011;67538;52.180;5.646;2023-10-09T13:31:15;15.23;;;5.70;;
22248;SDS011;67538;52.180;5.646;2023-10-09T13:33:43;10.00;;;4.80;;
22248;SDS011;67538;52.180;5.646;2023-10-09T13:36:11;14.30;;;5.67;;
22248;SDS011;67538;52.180;5.646;2023-10-09T13:38:53;16.27;;;5.78;;
22248;SDS011;67538;52.180;5.646;2023-10-09T13:41:21;14.98;;;6.00;;
22248;SDS011;67538;52.180;5.646;2023-10-09T13:43:53;15.57;;;5.97;;
22248;SDS011;67538;52.180;5.646;2023-10-09T13:46:22;19.30;;;6.50;;
22248;SDS011;67538;52.180;5.646;2023-10-09T13:48:49;18.58;;;6.25;;
22248;SDS011;67538;52.180;5.646;2023-10-09T13:51:18;14.63;;;6.47;;
22248;SDS011;67538;52.180;5.646;2023-10-09T13:53:49;18.95;;;6.57;;
22248;SDS011;67538;52.180;5.646;2023-10-09T13:56:18;14.90;;;6.63;;
22248;SDS011;67538;52.180;5.646;2023-10-09T13:58:46;17.70;;;6.78;;
22248;SDS011;67538;52.180;5.646;2023-10-09T14:01:14;16.53;;;7.40;;
22248;SDS011;67538;52.180;5.646;2023-10-09T14:03:53;15.18;;;6.60;;
22248;SDS011;67538;52.180;5.646;2023-10-09T14:06:24;14.93;;;6.93;;
22248;SDS011;67538;52.180;5.646;2023-10-09T14:08:58;19.08;;;7.20;;
22248;SDS011;67538;52.180;5.646;2023-10-09T14:11:29;16.08;;;6.70;;
22248;SDS011;67538;52.180;5.646;2023-10-09T14:13:57;16.63;;;6.68;;
22248;SDS011;67538;52.180;5.646;2023-10-09T14:16:26;18.17;;;6.78;;
22248;SDS011;67538;52.180;5.646;2023-10-09T14:18:56;16.70;;;6.43;;
22248;SDS011;67538;52.180;5.646;2023-10-09T14:21:25;20.30;;;6.97;;
22248;SDS011;67538;52.180;5.646;2023-10-09T14:23:55;17.88;;;6.78;;
22248;SDS011;67538;52.180;5.646;2023-10-09T14:26:24;14.83;;;6.47;;
22248;SDS011;67538;52.180;5.646;2023-10-09T14:28:53;25.50;;;7.53;;
22248;SDS011;67538;52.180;5.646;2023-10-09T14:31:22;17.02;;;6.65;;
22248;SDS011;67538;52.180;5.646;2023-10-09T14:33:53;17.70;;;7.18;;
22248;SDS011;67538;52.180;5.646;2023-10-09T14:36:21;21.70;;;7.63;;
22248;SDS011;67538;52.180;5.646;2023-10-09T14:38:49;22.10;;;7.32;;
22248;SDS011;67538;52.180;5.646;2023-10-09T14:41:19;20.60;;;7.10;;
22248;SDS011;67538;52.180;5.646;2023-10-09T14:43:49;26.23;;;8.23;;
22248;SDS011;67538;52.180;5.646;2023-10-09T14:46:18;24.13;;;7.60;;
22248;SDS011;67538;52.180;5.646;2023-10-09T14:48:50;21.43;;;7.40;;
22248;SDS011;67538;52.180;5.646;2023-10-09T14:51:19;22.70;;;8.32;;
22248;SDS011;67538;52.180;5.646;2023-10-09T14:53:53;20.58;;;7.50;;
22248;SDS011;67538;52.180;5.646;2023-10-09T14:56:22;21.60;;;8.18;;
22248;SDS011;67538;52.180;5.646;2023-10-09T14:58:54;22.05;;;8.15;;
22248;SDS011;67538;52.180;5.646;2023-10-09T15:01:24;24.83;;;8.10;;
22248;SDS011;67538;52.180;5.646;2023-10-09T15:03:54;23.90;;;8.10;;
22248;SDS011;67538;52.180;5.646;2023-10-09T15:06:23;18.92;;;8.60;;
22248;SDS011;67538;52.180;5.646;2023-10-09T15:08:52;23.77;;;8.90;;
22248;SDS011;67538;52.180;5.646;2023-10-09T15:11:23;20.40;;;8.10;;
22248;SDS011;67538;52.180;5.646;2023-10-09T15:13:53;23.55;;;8.65;;
22248;SDS011;67538;52.180;5.646;2023-10-09T15:16:21;33.38;;;9.20;;